sensor_id;sensor_type;location;lat;lon;timestamp;P1;durP1;ratioP1;P2;durP2;ratioP2
76833;SDS011;65793;42.678;23.332;2023-02-28T00:01:58;20.02;;;12.55;;
76833;SDS011;65793;42.678;23.332;2023-02-28T00:04:58;18.73;;;13.13;;
76833;SDS011;65793;42.678;23.332;2023-02-28T00:08:00;17.35;;;13.27;;
76833;SDS011;65793;42.678;23.332;2023-02-28T00:11:01;19.33;;;12.73;;
76833;SDS011;65793;42.678;23.332;2023-02-28T00:14:02;20.48;;;13.65;;
76833;SDS011;65793;42.678;23.332;2023-02-28T00:17:03;19.05;;;13.88;;
76833;SDS011;65793;42.678;23.332;2023-02-28T00:20:04;28.35;;;15.32;;
76833;SDS011;65793;42.678;23.332;2023-02-28T00:23:07;24.10;;;16.13;;
76833;SDS011;65793;42.678;23.332;2023-02-28T00:26:08;18.75;;;14.77;;
76833;SDS011;65793;42.678;23.332;2023-02-28T00:29:09;24.77;;;15.27;;
76833;SDS011;65793;42.678;23.332;2023-02-28T00:32:09;25.02;;;15.38;;
76833;SDS011;65793;42.678;23.332;2023-02-28T00:35:10;19.83;;;14.02;;
76833;SDS011;65793;42.678;23.332;2023-02-28T00:38:12;21.67;;;15.20;;
76833;SDS011;65793;42.678;23.332;2023-02-28T00:41:13;19.95;;;14.48;;
76833;SDS011;65793;42.678;23.332;2023-02-28T00:44:14;23.95;;;14.35;;
76833;SDS011;65793;42.678;23.332;2023-02-28T00:47:14;22.77;;;14.07;;
76833;SDS011;65793;42.678;23.332;2023-02-28T00:50:15;22.85;;;15.68;;
76833;SDS011;65793;42.678;23.332;2023-02-28T00:53:17;25.00;;;16.35;;
76833;SDS011;65793;42.678;23.332;2023-02-28T00:56:18;20.98;;;13.57;;
76833;SDS011;65793;42.678;23.332;2023-02-28T00:59:19;29.42;;;17.65;;
76833;SDS011;65793;42.678;23.332;2023-02-28T01:02:19;24.70;;;16.40;;
76833;SDS011;65793;42.678;23.332;2023-02-28T01:05:20;23.92;;;16.23;;
76833;SDS011;65793;42.678;23.332;2023-02-28T01:08:22;26.40;;;17.73;;
76833;SDS011;65793;42.678;23.332;2023-02-28T01:11:23;25.70;;;17.00;;
76833;SDS011;65793;42.678;23.332;2023-02-28T01:14:23;25.42;;;16.02;;
76833;SDS011;65793;42.678;23.332;2023-02-28T01:17:24;28.58;;;17.42;;
76833;SDS011;65793;42.678;23.332;2023-02-28T01:20:24;26.30;;;16.20;;
76833;SDS011;65793;42.678;23.332;2023-02-28T01:23:26;26.50;;;16.35;;
76833;SDS011;65793;42.678;23.332;2023-02-28T01:26:27;33.95;;;20.92;;
76833;SDS011;65793;42.678;23.332;2023-02-28T01:29:27;28.45;;;16.75;;
76833;SDS011;65793;42.678;23.332;2023-02-28T01:32:28;27.58;;;18.27;;
76833;SDS011;65793;42.678;23.332;2023-02-28T01:35:31;31.10;;;19.25;;
76833;SDS011;65793;42.678;23.332;2023-02-28T01:38:34;28.10;;;17.70;;
76833;SDS011;65793;42.678;23.332;2023-02-28T01:41:34;28.63;;;18.60;;
76833;SDS011;65793;42.678;23.332;2023-02-28T01:48:02;30.65;;;20.20;;
76833;SDS011;65793;42.678;23.332;2023-02-28T01:51:06;32.67;;;18.35;;
76833;SDS011;65793;42.678;23.332;2023-02-28T01:54:14;36.03;;;21.60;;
76833;SDS011;65793;42.678;23.332;2023-02-28T01:57:17;24.73;;;16.73;;
76833;SDS011;65793;42.678;23.332;2023-02-28T02:00:23;30.38;;;19.55;;
76833;SDS011;65793;42.678;23.332;2023-02-28T02:03:25;34.67;;;19.97;;
76833;SDS011;65793;42.678;23.332;2023-02-28T02:06:26;28.00;;;18.63;;
76833;SDS011;65793;42.678;23.332;2023-02-28T02:09:31;31.42;;;20.02;;
76833;SDS011;65793;42.678;23.332;2023-02-28T02:12:36;28.58;;;19.33;;
76833;SDS011;65793;42.678;23.332;2023-02-28T02:16:04;29.95;;;20.30;;
76833;SDS011;65793;42.678;23.332;2023-02-28T02:19:22;27.20;;;18.75;;
76833;SDS011;65793;42.678;23.332;2023-02-28T02:22:54;31.15;;;19.33;;
76833;SDS011;65793;42.678;23.332;2023-02-28T02:30:19;25.35;;;18.45;;
76833;SDS011;65793;42.678;23.332;2023-02-28T02:37:13;29.33;;;18.52;;
76833;SDS011;65793;42.678;23.332;2023-02-28T02:40:22;33.22;;;18.80;;
76833;SDS011;65793;42.678;23.332;2023-02-28T02:46:29;41.75;;;23.05;;
76833;SDS011;65793;42.678;23.332;2023-02-28T02:49:36;42.72;;;24.05;;
76833;SDS011;65793;42.678;23.332;2023-02-28T02:52:39;47.42;;;28.48;;
76833;SDS011;65793;42.678;23.332;2023-02-28T02:55:43;46.40;;;25.20;;
76833;SDS011;65793;42.678;23.332;2023-02-28T03:01:50;38.67;;;20.95;;
76833;SDS011;65793;42.678;23.332;2023-02-28T03:04:56;56.38;;;27.55;;
76833;SDS011;65793;42.678;23.332;2023-02-28T03:08:02;48.97;;;25.67;;
76833;SDS011;65793;42.678;23.332;2023-02-28T03:11:04;46.30;;;27.35;;
76833;SDS011;65793;42.678;23.332;2023-02-28T03:14:11;38.70;;;22.00;;
76833;SDS011;65793;42.678;23.332;2023-02-28T03:17:37;41.13;;;23.42;;
76833;SDS011;65793;42.678;23.332;2023-02-28T03:20:51;38.97;;;21.42;;
76833;SDS011;65793;42.678;23.332;2023-02-28T03:24:02;49.03;;;19.95;;
76833;SDS011;65793;42.678;23.332;2023-02-28T03:27:06;37.90;;;20.23;;
76833;SDS011;65793;42.678;23.332;2023-02-28T03:30:10;37.92;;;22.20;;
76833;SDS011;65793;42.678;23.332;2023-02-28T03:33:17;37.75;;;21.98;;
76833;SDS011;65793;42.678;23.332;2023-02-28T03:36:22;44.58;;;22.48;;
76833;SDS011;65793;42.678;23.332;2023-02-28T03:39:27;30.75;;;20.05;;
76833;SDS011;65793;42.678;23.332;2023-02-28T03:42:31;39.38;;;22.20;;
76833;SDS011;65793;42.678;23.332;2023-02-28T03:45:35;36.00;;;21.40;;
76833;SDS011;65793;42.678;23.332;2023-02-28T03:48:38;31.08;;;19.58;;
76833;SDS011;65793;42.678;23.332;2023-02-28T03:51:46;34.38;;;20.77;;
76833;SDS011;65793;42.678;23.332;2023-02-28T03:54:50;35.38;;;21.33;;
76833;SDS011;65793;42.678;23.332;2023-02-28T03:57:56;42.50;;;22.42;;
76833;SDS011;65793;42.678;23.332;2023-02-28T04:01:02;36.42;;;21.60;;
76833;SDS011;65793;42.678;23.332;2023-02-28T04:04:07;40.97;;;22.27;;
76833;SDS011;65793;42.678;23.332;2023-02-28T04:07:10;40.40;;;22.48;;
76833;SDS011;65793;42.678;23.332;2023-02-28T04:10:11;43.75;;;22.13;;
76833;SDS011;65793;42.678;23.332;2023-02-28T04:13:13;47.30;;;23.90;;
76833;SDS011;65793;42.678;23.332;2023-02-28T04:16:13;51.03;;;27.27;;
76833;SDS011;65793;42.678;23.332;2023-02-28T04:19:14;49.72;;;26.75;;
76833;SDS011;65793;42.678;23.332;2023-02-28T04:22:16;58.00;;;28.30;;
76833;SDS011;65793;42.678;23.332;2023-02-28T04:25:17;45.78;;;25.13;;
76833;SDS011;65793;42.678;23.332;2023-02-28T04:28:17;48.03;;;26.95;;
76833;SDS011;65793;42.678;23.332;2023-02-28T04:34:55;38.55;;;21.13;;
76833;SDS011;65793;42.678;23.332;2023-02-28T04:37:21;41.93;;;20.50;;
76833;SDS011;65793;42.678;23.332;2023-02-28T04:40:27;40.08;;;21.05;;
